Data for 07/12/2005

Time Sea-Level Adjusted Pressure Absolute Pressure Temperature Relative Humidity Dew Point   
(mb) (inHg) (mb) (inHg) (C) (F) (%) (C) (F)
00:05 1023 30.21 852 25.16 18.4 65.1 48 7.4 45.3
00:10 1023 30.21 852 25.16 18.5 65.3 49 7.6 45.7
00:15 1023 30.21 852 25.16 18.4 65.1 48 7.4 45.3
00:20 1023 30.21 852 25.16 18.6 65.5 48 7.4 45.3
00:25 1023 30.21 852 25.16 18.7 65.7 47 7.4 45.4
00:30 1023 30.21 852 25.16 18.6 65.4 50 8 46.3
00:35 1023 30.21 852 25.16 18.3 64.9 50 7.8 46
00:40 1023 30.21 852 25.16 18.5 65.2 49 7.5 45.6
00:45 1023 30.21 852 25.16 18.6 65.6 49 8 46.3
00:50 1023 30.21 852 25.16 18.8 65.8 49 7.9 46.1
00:55 1023 30.21 852 25.16 18.7 65.7 48 7.5 45.4
01:00 1023 30.21 852 25.16 18.9 66.1 47 7.5 45.5
01:05 1023 30.21 852 25.16 18.7 65.7 48 7.7 45.9
01:10 1023 30.21 852 25.16 18.5 65.3 48 7.5 45.5
01:15 1023 30.21 852 25.16 18.3 65 50 7.8 46
01:20 1023 30.21 852 25.16 18.2 64.7 50 7.6 45.7
01:25 1023 30.21 852 25.16 18.2 64.7 51 7.9 46.2
01:30 1023 30.21 852 25.16 18 64.4 52 8.1 46.6
01:35 1023 30.21 852 25.16 17.8 64.1 53 8.1 46.7
01:40 1023 30.21 852 25.16 17.8 64 53 8.1 46.6
01:45 1023 30.21 852 25.16 17.9 64.2 53 8.2 46.7
01:50 1023 30.21 852 25.16 17.8 64.1 53 8.1 46.6
01:55 1023 30.21 852 25.16 17.8 64 53 8.1 46.5
02:00 1023 30.21 852 25.16 17.7 63.9 53 8 46.5
02:05 1023 30.21 852 25.16 17.6 63.7 53 7.9 46.3
02:10 1023 30.21 852 25.16 17.4 63.4 54 8.1 46.6
02:15 1023 30.21 852 25.16 17.3 63.1 54 8 46.3
02:20 1023 30.21 852 25.16 17.3 63.2 53 7.7 45.9
02:25 1023 30.21 852 25.16 17.3 63.2 54 7.9 46.2
02:30 1023 30.21 852 25.16 17.2 62.9 54 8 46.3
02:35 1023 30.21 852 25.16 17 62.5 55 8 46.3
02:40 1023 30.21 852 25.16 16.9 62.4 56 8.2 46.7
02:45 1023 30.21 852 25.16 16.7 62 57 8.2 46.7
02:50 1023 30.21 852 25.16 16.5 61.8 57 8 46.4
02:55 1023 30.21 852 25.16 16.6 61.8 56 7.9 46.2
03:00 1023 30.21 852 25.16 16.6 61.8 56 7.9 46.2
03:05 1023 30.21 852 25.16 16.5 61.7 55 7.5 45.5
03:10 1023 30.21 852 25.16 16.5 61.7 55 7.6 45.7
03:15 1023 30.21 852 25.16 16.5 61.7 56 7.7 45.9
03:20 1023 30.21 852 25.16 16.6 61.8 55 7.7 45.8
03:25 1023 30.21 852 25.16 16.4 61.5 55 7.6 45.6
03:30 1023 30.21 852 25.16 16.3 61.3 56 7.5 45.4
03:35 1023 30.21 852 25.16 16.1 61 57 7.6 45.7
03:40 1023 30.21 852 25.16 16.1 61 56 7.4 45.3
03:45 1023 30.21 852 25.16 16.1 60.9 55 7.1 44.7
03:50 1023 30.21 852 25.16 16.2 61.1 54 7 44.7
03:55 1023 30.21 852 25.16 16.2 61.2 55 7.2 44.9
04:00 1023 30.21 852 25.16 16.2 61.2 54 7 44.6
04:05 1023 30.21 852 25.16 16.2 61.1 55 7.1 44.8
04:10 1023 30.21 852 25.16 16.1 60.9 56 7.3 45.1
04:15 1023 30.21 852 25.16 15.8 60.4 56 7.1 44.8
04:20 1023 30.21 852 25.16 15.6 60.1 56 7.1 44.7
04:25 1023 30.21 852 25.16 15.6 60.1 56 6.9 44.5
04:30 1023 30.21 852 25.16 15.7 60.2 56 7 44.5
04:35 1023 30.21 853 25.19 15.7 60.2 55 6.8 44.3
04:40 1023 30.21 853 25.19 15.9 60.6 55 6.9 44.4
04:45 1023 30.21 853 25.19 15.9 60.5 56 7.1 44.8
04:50 1023 30.21 853 25.19 15.7 60.2 58 7.5 45.5
04:55 1023 30.21 853 25.19 15.5 59.9 58 7.2 45
05:00 1023 30.21 852 25.16 15.3 59.5 58 7 44.7
05:05 1023 30.21 852 25.16 15.4 59.6 57 7 44.6
05:10 1023 30.21 852 25.16 15.4 59.6 57 7 44.7
05:15 1023 30.21 853 25.19 15.4 59.7 56 6.8 44.2
05:20 1023 30.21 852 25.16 15.7 60.3 55 6.8 44.2
05:25 1023 30.21 853 25.19 15.5 59.9 56 6.9 44.4
05:30 1023 30.21 853 25.19 15.3 59.5 57 6.9 44.5
05:35 1023 30.21 853 25.19 15.1 59.1 57 6.8 44.2
05:40 1023 30.21 853 25.19 15 59.1 58 6.8 44.3
05:45 1023 30.21 853 25.19 15 59 57 6.6 43.8
05:50 1023 30.21 853 25.19 15.1 59.2 57 6.7 44
05:55 1023 30.21 853 25.19 15 59.1 57 6.7 44.1
06:00 1023 30.21 853 25.19 15.3 59.5 56 6.7 44
06:05 1023 30.21 853 25.19 15.1 59.1 57 6.7 44.1
06:10 1023 30.21 853 25.19 15.1 59.2 56 6.5 43.7
06:15 1024 30.24 853 25.19 15.3 59.5 56 6.7 44.1
06:20 1024 30.24 853 25.19 15.1 59.2 57 6.7 44.1
06:25 1024 30.24 853 25.19 15.4 59.8 55 6.6 43.8
06:30 1024 30.24 853 25.19 15.4 59.7 55 6.6 43.8
06:35 1024 30.24 853 25.19 15.5 59.9 55 6.6 43.8
06:40 1024 30.24 853 25.19 15.8 60.4 54 6.6 43.8
06:45 1024 30.24 853 25.19 15.8 60.5 55 6.8 44.3
06:50 1024 30.24 853 25.19 15.7 60.3 55 6.8 44.2
06:55 1024 30.24 853 25.19 15.8 60.4 55 6.8 44.3
07:00 1024 30.24 853 25.19 15.9 60.7 56 7.2 45
07:05 1024 30.24 853 25.19 16 60.8 55 7 44.6
07:10 1024 30.24 853 25.19 16.2 61.2 55 7.2 45
07:15 1024 30.24 853 25.19 16.5 61.7 54 7.3 45.2
07:20 1024 30.24 853 25.19 16.6 61.9 54 7.3 45.1
07:25 1024 30.24 853 25.19 17 62.5 51 7 44.6
07:30 1024 30.24 853 25.19 17.2 63 51 7 44.5
07:35 1024 30.24 853 25.19 17.6 63.7 49 7 44.6
07:40 1024 30.24 853 25.19 17.7 63.9 51 7.5 45.5
07:45 1024 30.24 853 25.19 17.9 64.2 50 7.5 45.4
07:50 1024 30.24 853 25.19 18 64.4 51 7.9 46.2
07:55 1024 30.24 853 25.19 18.1 64.6 52 8.2 46.8
08:00 1024 30.24 853 25.19 18.2 64.8 49 7.6 45.7
08:05 1024 30.24 853 25.19 18.9 66 49 8.2 46.8
08:10 1024 30.24 853 25.19 19.3 66.7 50 8.9 48
08:15 1024 30.24 853 25.19 19.7 67.5 49 8.9 48
08:20 1024 30.24 853 25.19 19.7 67.5 50 9.1 48.4
08:25 1024 30.24 853 25.19 19.8 67.7 47 8.2 46.7
08:30 1024 30.24 853 25.19 20.1 68.2 45 8 46.5
08:35 1024 30.24 853 25.19 21 69.9 43 8.2 46.8
08:40 1024 30.24 853 25.19 21.5 70.8 40 7.7 45.8
08:45 1024 30.24 853 25.19 21.2 70.2 42 7.9 46.2
08:50 1024 30.24 853 25.19 21.3 70.3 43 8.3 46.9
08:55 1024 30.24 853 25.19 21.7 71 44 9 48.2
09:00 1024 30.24 853 25.19 21.5 70.7 45 9.2 48.5
09:05 1024 30.24 853 25.19 21.4 70.6 44 8.7 47.7
09:10 1024 30.24 853 25.19 21.9 71.4 39 7.5 45.4
09:15 1024 30.24 854 25.22 22.6 72.6 38 7.7 45.9
09:20 1024 30.24 854 25.22 22.9 73.2 37 7.7 45.8
09:25 1024 30.24 854 25.22 23.6 74.4 35 7.5 45.6
09:30 1024 30.24 854 25.22 23.9 75 36 8 46.3
09:35 1024 30.24 854 25.22 23.8 74.9 35 7.8 46
09:40 1024 30.24 854 25.22 23.9 75.1 36 8 46.4
09:45 1024 30.24 854 25.22 24.6 76.4 35 8.2 46.8
09:50 1024 30.24 854 25.22 25 76.9 34 8.4 47.1
09:55 1024 30.24 854 25.22 24.5 76.2 34 7.9 46.3
10:00 1024 30.24 854 25.22 24.9 76.8 33 7.9 46.2
10:05 1024 30.24 853 25.19 24.9 76.8 33 7.8 46.1
10:10 1024 30.24 853 25.19 25.4 77.6 33 8.1 46.5
10:15 1024 30.24 853 25.19 25.6 78.1 34 8.9 48
10:20 1024 30.24 853 25.19 25.7 78.3 35 9.5 49
10:25 1024 30.24 853 25.19 25.7 78.2 34 8.9 48.1
10:30 1024 30.24 853 25.19 25.9 78.5 34 9.2 48.6
10:35 1024 30.24 853 25.19 26 78.9 34 9.2 48.6
10:40 1024 30.24 853 25.19 26.4 79.5 34 9.3 48.7
10:45 1024 30.24 853 25.19 26.5 79.7 35 9.9 49.8
10:50 1024 30.24 853 25.19 26.6 79.9 34 9.5 49.2
10:55 1024 30.24 853 25.19 27 80.6 33 9.6 49.3
11:00 1024 30.24 853 25.19 26.7 80.1 34 9.8 49.7
11:05 1024 30.24 853 25.19 26.2 79.1 35 9.9 49.9
11:10 1024 30.24 853 25.19 26.6 79.8 33 9.2 48.6
11:15 1024 30.24 853 25.19 26.9 80.4 33 9.6 49.3
11:20 1024 30.24 853 25.19 26.3 79.3 34 9.6 49.3
11:25 1024 30.24 853 25.19 26.2 79.1 35 9.6 49.3
11:30 1024 30.24 853 25.19 27.2 81 32 9.3 48.8
11:35 1024 30.24 853 25.19 28.2 82.7 31 9.6 49.3
11:40 1024 30.24 853 25.19 27.3 81.1 32 9.6 49.3
11:45 1024 30.24 853 25.19 27.3 81.1 31 8.9 48
11:50 1024 30.24 853 25.19 27.5 81.4 32 9.6 49.2
11:55 1024 30.24 853 25.19 27.2 80.9 32 9.3 48.8
12:00 1024 30.24 853 25.19 28 82.4 30 9.2 48.5
12:05 1024 30.24 853 25.19 29 84.1 29 9.6 49.3
12:10 1024 30.24 853 25.19 29.2 84.5 27 8.7 47.7
12:15 1024 30.24 853 25.19 28.7 83.7 26 7.7 45.8
12:20 1024 30.24 853 25.19 27.7 81.9 27 7.3 45.2
12:25 1024 30.24 853 25.19 28.6 83.4 26 7.7 45.9
12:30 1024 30.24 853 25.19 29.3 84.8 25 7.3 45.2
12:35 1024 30.24 853 25.19 29.6 85.3 24 7.3 45.1
12:40 1024 30.24 853 25.19 28.8 83.9 24 6.3 43.3
12:45 1023 30.21 853 25.19 29.1 84.4 23 6.4 43.6
12:50 1023 30.21 853 25.19 29.4 85 23 6.6 43.9
12:55 1023 30.21 853 25.19 30.4 86.7 21 5.7 42.2
13:00 1023 30.21 852 25.16 30.1 86.2 20 5.2 41.3
13:05 1023 30.21 852 25.16 31 87.9 18 4.2 39.5
13:10 1023 30.21 852 25.16 30.1 86.2 18 3.9 39
13:15 1023 30.21 852 25.16 30.4 86.7 16 2.5 36.5
13:20 1023 30.21 852 25.16 31 87.7 16 2.5 36.5
13:25 1023 30.21 852 25.16 30.9 87.6 16 2.3 36.1
13:30 1023 30.21 852 25.16 31.7 89.1 16 3.4 38.1
13:35 1023 30.21 852 25.16 32.4 90.2 16 3.5 38.4
13:40 1023 30.21 852 25.16 32 89.5 17 4 39.2
13:45 1023 30.21 852 25.16 32.3 90.1 16 3.7 38.6
13:50 1023 30.21 852 25.16 31.5 88.8 16 3.1 37.5
13:55 1023 30.21 852 25.16 31.7 89.1 16 3.4 38.1
14:00 1023 30.21 852 25.16 32.6 90.6 15 2.8 37.1
14:05 1023 30.21 852 25.16 32.3 90.2 16 3.8 38.8
14:10 1023 30.21 852 25.16 32.9 91.3 15 3.4 38.2
14:15 1023 30.21 852 25.16 33 91.5 15 3.5 38.4
14:20 1022 30.18 852 25.16 33.5 92.3 15 3.8 38.8
14:25 1023 30.21 852 25.16 34 93.3 15 3.9 39
14:30 1022 30.18 852 25.16 33.4 92.2 16 4.3 39.8
14:35 1022 30.18 852 25.16 32.4 90.2 16 3.4 38.1
14:40 1022 30.18 852 25.16 32.4 90.3 15 3.1 37.5
14:45 1022 30.18 852 25.16 33.4 92.1 16 4.2 39.5
14:50 1022 30.18 851 25.13 32.8 91 15 3.5 38.3
14:55 1022 30.18 851 25.13 31.9 89.4 16 3.5 38.2
15:00 1022 30.18 851 25.13 32.1 89.8 16 3.6 38.4
15:05 1022 30.18 851 25.13 32 89.6 16 3.1 37.5
15:10 1022 30.18 851 25.13 32.3 90.1 15 3.1 37.6
15:15 1022 30.18 851 25.13 33.3 91.9 15 3.9 38.9
15:20 1022 30.18 851 25.13 32.3 90.2 17 4.5 40
15:25 1022 30.18 851 25.13 32.7 90.8 16 3.7 38.6
15:30 1022 30.18 851 25.13 33.1 91.7 18 5.7 42.2
15:35 1022 30.18 851 25.13 33.4 92.1 18 6.4 43.5
15:40 1022 30.18 851 25.13 32.7 90.8 16 4.1 39.3
15:45 1022 30.18 851 25.13 32.6 90.7 17 5 41.1
15:50 1022 30.18 851 25.13 33 91.5 16 4.3 39.7
15:55 1022 30.18 851 25.13 33.1 91.7 16 4.3 39.8
16:00 1022 30.18 851 25.13 33.7 92.7 16 5.2 41.4
16:05 1022 30.18 851 25.13 32.8 91 18 5.8 42.4
16:10 1022 30.18 851 25.13 33.3 92 16 4.6 40.2
16:15 1022 30.18 851 25.13 33.3 91.9 16 4.4 39.9
16:20 1022 30.18 851 25.13 33.4 92.1 15 4 39.2
16:25 1022 30.18 851 25.13 33.9 93.1 15 4.5 40.1
16:30 1022 30.18 851 25.13 34.1 93.3 16 4.8 40.6
16:35 1022 30.18 851 25.13 34 93.1 15 4.5 40.1
16:40 1022 30.18 851 25.13 33.9 93.1 16 4.7 40.4
16:45 1022 30.18 851 25.13 34.1 93.4 16 5.1 41.2
16:50 1022 30.18 851 25.13 34.1 93.3 16 4.8 40.6
16:55 1021 30.15 851 25.13 34.1 93.3 19 7.3 45.1
17:00 1021 30.15 851 25.13 34.2 93.6 15 4.3 39.8
17:05 1021 30.15 851 25.13 33.7 92.7 17 6.1 42.9
17:10 1021 30.15 851 25.13 34 93.2 16 4.7 40.4
17:15 1021 30.15 851 25.13 34.3 93.7 16 5 41.1
17:20 1021 30.15 850 25.1 34.3 93.7 20 8.5 47.2
17:25 1021 30.15 850 25.1 33.5 92.3 18 6.4 43.5
17:30 1021 30.15 850 25.1 34 93.1 15 4.5 40.1
17:35 1021 30.15 850 25.1 34.5 94.1 15 4.8 40.6
17:40 1021 30.15 850 25.1 33.9 93 16 5.2 41.3
17:45 1021 30.15 850 25.1 33.4 92.1 18 6.4 43.6
17:50 1021 30.15 850 25.1 33.3 92 17 5.8 42.4
17:55 1021 30.15 850 25.1 33.2 91.7 16 4.5 40.1
18:00 1021 30.15 850 25.1 33.3 91.9 16 4.9 40.8
18:05 1021 30.15 850 25.1 33.1 91.6 18 5.7 42.2
18:10 1021 30.15 850 25.1 33.3 92 16 4.8 40.7
18:15 1021 30.15 850 25.1 33.8 92.8 18 6.2 43.2
18:20 1021 30.15 850 25.1 33.5 92.4 16 4.9 40.9
18:25 1021 30.15 850 25.1 33.5 92.3 16 4.6 40.2
18:30 1021 30.15 850 25.1 33.7 92.6 17 5.3 41.6
18:35 1021 30.15 850 25.1 33.2 91.7 19 6.6 44
18:40 1021 30.15 850 25.1 33.1 91.6 19 6.9 44.4
18:45 1021 30.15 850 25.1 33.2 91.7 19 7.1 44.8
18:50 1021 30.15 850 25.1 33.1 91.5 19 6.7 44
18:55 1021 30.15 850 25.1 33.1 91.5 17 5 41
19:00 1021 30.15 850 25.1 32.6 90.7 19 6.6 43.8
19:05 1021 30.15 850 25.1 32.6 90.6 18 5.5 41.9
19:10 1021 30.15 850 25.1 32.9 91.2 18 5.9 42.7
19:15 1021 30.15 850 25.1 32.7 90.9 19 6.3 43.3
19:20 1021 30.15 850 25.1 32.6 90.7 19 6.1 43
19:25 1021 30.15 850 25.1 32.4 90.4 19 6.2 43.1
19:30 1021 30.15 850 25.1 32.1 89.8 20 6.6 43.9
19:35 1021 30.15 850 25.1 32 89.6 20 6.5 43.8
19:40 1021 30.15 850 25.1 31.9 89.4 20 6.8 44.3
19:45 1021 30.15 850 25.1 31.8 89.3 21 7.3 45.1
19:50 1021 30.15 850 25.1 31.5 88.7 24 8.9 47.9
19:55 1021 30.15 850 25.1 31.2 88.2 24 8.9 48
20:00 1021 30.15 850 25.1 30.9 87.7 24 8.3 46.9
20:05 1021 30.15 850 25.1 30.5 86.8 25 8.8 47.9
20:10 1021 30.15 850 25.1 29.9 85.8 26 8.9 47.9
20:15 1021 30.15 850 25.1 29.5 85.1 26 8.6 47.5
20:20 1021 30.15 850 25.1 29.2 84.6 27 8.8 47.9
20:25 1021 30.15 850 25.1 29 84.1 28 9 48.3
20:30 1021 30.15 850 25.1 28.7 83.6 29 9.1 48.4
20:35 1021 30.15 850 25.1 28.4 83.2 29 8.9 48
20:40 1021 30.15 850 25.1 28.2 82.7 30 9.2 48.5
20:45 1021 30.15 850 25.1 27.8 82 31 9.4 49
20:50 1021 30.15 850 25.1 27.6 81.6 31 9.2 48.6
20:55 1021 30.15 850 25.1 27.5 81.4 31 9.1 48.5
21:00 1021 30.15 850 25.1 27.4 81.3 31 8.9 48
21:05 1021 30.15 850 25.1 27.3 81.2 31 8.8 47.8
21:10 1021 30.15 850 25.1 27.2 81 30 8.6 47.5
21:15 1021 30.15 850 25.1 27.4 81.3 30 8.5 47.3
21:20 1021 30.15 850 25.1 27.3 81.2 31 8.8 47.9
21:25 1021 30.15 850 25.1 27.1 80.8 30 8.5 47.3
21:30 1021 30.15 850 25.1 27.1 80.8 30 8.5 47.3
21:35 1021 30.15 850 25.1 26.9 80.5 31 8.4 47.2
21:40 1021 30.15 850 25.1 26.8 80.3 33 9.4 48.9
21:45 1021 30.15 850 25.1 26.5 79.6 31 8.5 47.2
21:50 1021 30.15 850 25.1 26.6 79.9 30 8.1 46.6
21:55 1021 30.15 850 25.1 26.6 79.8 31 8.2 46.7
22:00 1021 30.15 850 25.1 26.5 79.8 32 8.7 47.6
22:05 1021 30.15 850 25.1 26.2 79.1 32 8.3 47
22:10 1021 30.15 850 25.1 26 78.7 32 8.3 47
22:15 1021 30.15 850 25.1 25.9 78.6 31 7.9 46.2
22:20 1021 30.15 850 25.1 26.1 79 31 8.1 46.6
22:25 1021 30.15 850 25.1 25.9 78.7 32 8.1 46.6
22:30 1021 30.15 850 25.1 25.7 78.2 33 8.2 46.8
22:35 1021 30.15 850 25.1 25.3 77.5 33 8.2 46.7
22:40 1021 30.15 850 25.1 25 77.1 34 8.3 46.9
22:45 1021 30.15 850 25.1 24.8 76.6 34 8.1 46.5
22:50 1021 30.15 850 25.1 24.5 76.1 35 8.4 47.2
22:55 1021 30.15 850 25.1 24.2 75.6 35 8 46.4
23:00 1021 30.15 850 25.1 24.7 76.4 34 7.9 46.2
23:05 1021 30.15 850 25.1 24.8 76.7 35 8.4 47.2
23:10 1021 30.15 850 25.1 24.3 75.7 35 8.2 46.7
23:15 1021 30.15 850 25.1 24.4 76 34 7.8 46.1
23:20 1021 30.15 850 25.1 24.4 76 35 8.1 46.6
23:25 1021 30.15 850 25.1 24.2 75.5 35 8 46.5
23:30 1021 30.15 850 25.1 24.4 75.9 33 7.2 45
23:35 1021 30.15 850 25.1 24.7 76.4 33 7.5 45.5
23:40 1021 30.15 850 25.1 24.5 76.1 34 7.6 45.8
23:45 1021 30.15 850 25.1 24.4 76 33 7.3 45.1
23:50 1021 30.15 850 25.1 24.2 75.5 34 7.5 45.4
23:55 1021 30.15 850 25.1 24 75.2 34 7.4 45.3
24:00 1021 30.15 850 25.1 23.9 75.1 33 7.1 44.7